createdAt,value
2018-12-10T00:00:37.759Z,997.71
2018-12-10T00:01:37.737Z,997.73
2018-12-10T00:02:37.712Z,997.78
2018-12-10T00:03:37.690Z,997.81
2018-12-10T00:04:37.668Z,997.75
2018-12-10T00:05:37.648Z,997.84
2018-12-10T00:06:37.625Z,997.79
2018-12-10T00:07:37.605Z,997.77
2018-12-10T00:08:37.586Z,997.84
2018-12-10T00:09:37.562Z,997.86
2018-12-10T00:10:41.604Z,997.91
2018-12-10T00:11:37.521Z,997.90
2018-12-10T00:12:37.494Z,997.90
2018-12-10T00:13:37.476Z,997.94
2018-12-10T00:14:37.459Z,997.96
2018-12-10T00:15:37.434Z,998.03
2018-12-10T00:16:37.412Z,997.95
2018-12-10T00:17:37.395Z,997.95
2018-12-10T00:18:37.364Z,998.03
2018-12-10T00:19:37.348Z,998.07
2018-12-10T00:20:37.318Z,998.06
2018-12-10T00:21:37.303Z,998.04
2018-12-10T00:22:37.278Z,998.11
2018-12-10T00:23:37.255Z,998.06
2018-12-10T00:24:37.234Z,998.16
2018-12-10T00:25:37.212Z,998.18
2018-12-10T00:26:37.190Z,998.15
2018-12-10T00:27:37.174Z,998.13
2018-12-10T00:28:37.144Z,998.25
2018-12-10T00:29:37.127Z,998.29
2018-12-10T00:30:37.102Z,998.28
2018-12-10T00:31:37.082Z,998.26
2018-12-10T00:32:37.060Z,998.32
2018-12-10T00:33:37.036Z,998.35
2018-12-10T00:34:37.015Z,998.40
2018-12-10T00:35:36.991Z,998.42
2018-12-10T00:36:36.974Z,998.45
2018-12-10T00:37:36.949Z,998.42
2018-12-10T00:38:36.924Z,998.46
2018-12-10T00:39:36.902Z,998.42
2018-12-10T00:40:36.889Z,998.50
2018-12-10T00:41:36.862Z,998.54
2018-12-10T00:42:36.839Z,998.55
2018-12-10T00:43:36.821Z,998.61
2018-12-10T00:44:36.799Z,998.56
2018-12-10T00:45:36.771Z,998.61
2018-12-10T00:46:36.751Z,998.60
2018-12-10T00:47:36.731Z,998.67
2018-12-10T00:48:36.708Z,998.69
2018-12-10T00:49:36.686Z,998.64
2018-12-10T00:50:36.664Z,998.75
2018-12-10T00:51:36.646Z,998.70
2018-12-10T00:52:36.619Z,998.67
2018-12-10T00:53:36.601Z,998.80
2018-12-10T00:54:36.576Z,998.82
2018-12-10T00:55:36.554Z,998.82
2018-12-10T00:56:36.539Z,998.87
2018-12-10T00:57:36.516Z,998.79
2018-12-10T00:58:36.490Z,998.84
2018-12-10T00:59:36.470Z,998.74
2018-12-10T01:00:36.444Z,998.82
2018-12-10T01:01:36.424Z,998.82
2018-12-10T01:02:36.400Z,998.88
2018-12-10T01:03:36.381Z,998.89
2018-12-10T01:04:36.361Z,998.96
2018-12-10T01:05:36.335Z,998.91
2018-12-10T01:06:36.320Z,998.97
2018-12-10T01:07:36.301Z,998.94
2018-12-10T01:08:36.270Z,999.06
2018-12-10T01:09:36.251Z,999.04
2018-12-10T01:10:36.224Z,999.04
2018-12-10T01:11:36.206Z,999.11
2018-12-10T01:12:36.184Z,999.11
2018-12-10T01:13:36.164Z,999.28
2018-12-10T01:14:36.141Z,999.19
2018-12-10T01:15:36.118Z,999.09
2018-12-10T01:16:36.096Z,999.18
2018-12-10T01:17:36.078Z,999.19
2018-12-10T01:18:36.055Z,999.24
2018-12-10T01:19:36.032Z,999.25
2018-12-10T01:20:36.008Z,999.23
2018-12-10T01:21:35.984Z,999.28
2018-12-10T01:22:35.964Z,999.31
2018-12-10T01:23:35.942Z,999.28
2018-12-10T01:24:35.920Z,999.27
2018-12-10T01:25:35.901Z,999.27
2018-12-10T01:26:35.874Z,999.34
2018-12-10T01:27:35.856Z,999.32
2018-12-10T01:28:35.835Z,999.41
2018-12-10T01:29:35.814Z,999.40
2018-12-10T01:30:35.792Z,999.47
2018-12-10T01:31:35.770Z,999.49
2018-12-10T01:32:35.747Z,999.48
2018-12-10T01:33:35.725Z,999.46
2018-12-10T01:34:35.701Z,999.47
2018-12-10T01:35:35.676Z,999.52
2018-12-10T01:36:35.665Z,999.51
2018-12-10T01:37:35.635Z,999.52
2018-12-10T01:38:35.615Z,999.53
2018-12-10T01:39:35.593Z,999.54
2018-12-10T01:40:35.569Z,999.67
2018-12-10T01:41:35.553Z,999.50
2018-12-10T01:42:35.530Z,999.61
2018-12-10T01:43:35.502Z,999.56
2018-12-10T01:44:35.488Z,999.57
2018-12-10T01:45:35.462Z,999.55
2018-12-10T01:46:35.436Z,999.59
2018-12-10T01:47:35.419Z,999.64
2018-12-10T01:48:35.398Z,999.59
2018-12-10T01:49:35.380Z,999.66
2018-12-10T01:50:35.349Z,999.61
2018-12-10T01:51:35.329Z,999.66
2018-12-10T01:52:35.310Z,999.68
2018-12-10T01:53:35.288Z,999.70
2018-12-10T01:54:35.267Z,999.69
2018-12-10T01:55:35.245Z,999.70
2018-12-10T01:56:35.220Z,999.72
2018-12-10T01:57:35.198Z,999.76
2018-12-10T01:58:35.175Z,999.79
2018-12-10T01:59:35.157Z,999.75
2018-12-10T02:00:35.134Z,999.84
2018-12-10T02:01:35.110Z,999.77
2018-12-10T02:02:35.085Z,999.81
2018-12-10T02:03:35.071Z,999.85
2018-12-10T02:04:35.042Z,999.88
2018-12-10T02:05:35.022Z,999.81
2018-12-10T02:06:34.997Z,999.83
2018-12-10T02:07:34.980Z,999.85
2018-12-10T02:08:34.956Z,999.84
2018-12-10T02:09:34.929Z,999.84
2018-12-10T02:10:34.913Z,999.96
2018-12-10T02:11:34.890Z,999.90
2018-12-10T02:12:34.868Z,999.96
2018-12-10T02:13:34.848Z,999.96
2018-12-10T02:14:34.827Z,1000.01
2018-12-10T02:15:34.802Z,1000.03
2018-12-10T02:16:34.778Z,1000.00
2018-12-10T02:17:34.761Z,1000.09
2018-12-10T02:18:34.734Z,1000.12
2018-12-10T02:19:34.713Z,1000.10
2018-12-10T02:20:34.691Z,1000.08
2018-12-10T02:21:34.671Z,1000.04
2018-12-10T02:22:34.645Z,1000.07
2018-12-10T02:23:34.624Z,1000.16
2018-12-10T02:24:34.601Z,1000.10
2018-12-10T02:25:34.583Z,1000.09
2018-12-10T02:26:34.557Z,1000.10
2018-12-10T02:27:34.533Z,1000.15
2018-12-10T02:28:34.516Z,1000.15
2018-12-10T02:29:34.493Z,1000.18
2018-12-10T02:30:34.478Z,1000.14
2018-12-10T02:31:34.453Z,1000.14
2018-12-10T02:32:34.425Z,1000.11
2018-12-10T02:33:34.401Z,1000.12
2018-12-10T02:34:34.384Z,1000.16
2018-12-10T02:35:34.359Z,1000.08
2018-12-10T02:36:34.346Z,1000.07
2018-12-10T02:37:34.319Z,1000.10
2018-12-10T02:38:34.295Z,1000.21
2018-12-10T02:39:34.270Z,1000.16
2018-12-10T02:40:34.250Z,1000.18
2018-12-10T02:41:34.229Z,1000.19
2018-12-10T02:42:34.201Z,1000.17
2018-12-10T02:43:34.180Z,1000.13
2018-12-10T02:44:34.160Z,1000.16
2018-12-10T02:45:34.138Z,1000.11
2018-12-10T02:46:34.113Z,1000.19
2018-12-10T02:47:34.097Z,1000.16
2018-12-10T02:48:34.077Z,1000.13
2018-12-10T02:49:34.049Z,1000.15
2018-12-10T02:50:34.027Z,1000.15
2018-12-10T02:51:34.003Z,1000.24
2018-12-10T02:52:33.990Z,1000.27
2018-12-10T02:53:33.961Z,1000.21
2018-12-10T02:54:33.941Z,1000.21
2018-12-10T02:55:33.915Z,1000.31
2018-12-10T02:56:33.895Z,1000.20
2018-12-10T02:57:33.881Z,1000.24
2018-12-10T02:58:33.850Z,1000.30
2018-12-10T02:59:33.835Z,1000.32
2018-12-10T03:00:33.807Z,1000.40
2018-12-10T03:01:33.785Z,1000.38
2018-12-10T03:02:33.761Z,1000.37
2018-12-10T03:03:33.743Z,1000.42
2018-12-10T03:04:33.722Z,1000.36
2018-12-10T03:05:33.697Z,1000.44
2018-12-10T03:06:33.677Z,1000.32
2018-12-10T03:07:33.650Z,1000.47
2018-12-10T03:08:33.633Z,1000.51
2018-12-10T03:09:33.611Z,1000.44
2018-12-10T03:10:33.601Z,1000.46
2018-12-10T03:11:33.567Z,1000.45
2018-12-10T03:12:33.543Z,1000.50
2018-12-10T03:13:33.529Z,1000.51
2018-12-10T03:14:33.495Z,1000.58
2018-12-10T03:15:33.475Z,1000.58
2018-12-10T03:16:33.461Z,1000.53
2018-12-10T03:17:33.429Z,1000.52
2018-12-10T03:18:33.415Z,1000.68
2018-12-10T03:19:33.387Z,1000.51
2018-12-10T03:20:33.365Z,1000.54
2018-12-10T03:21:33.345Z,1000.50
2018-12-10T03:22:33.321Z,1000.64
2018-12-10T03:23:33.297Z,1000.61
2018-12-10T03:24:33.279Z,1000.68
2018-12-10T03:25:33.255Z,1000.79
2018-12-10T03:26:33.244Z,1000.74
2018-12-10T03:27:33.213Z,1000.75
2018-12-10T03:28:33.191Z,1000.76
2018-12-10T03:29:33.167Z,1000.78
2018-12-10T03:30:33.149Z,1000.82
2018-12-10T03:31:33.195Z,1000.79
2018-12-10T03:32:33.107Z,1000.71
2018-12-10T03:33:33.080Z,1000.84
2018-12-10T03:34:33.060Z,1000.84
2018-12-10T03:35:33.030Z,1000.85
2018-12-10T03:36:33.031Z,1000.87
2018-12-10T03:37:32.995Z,1000.82
2018-12-10T03:38:32.966Z,1000.84
2018-12-10T03:39:32.951Z,1000.87
2018-12-10T03:40:32.924Z,1000.85
2018-12-10T03:41:32.904Z,1000.84
2018-12-10T03:42:32.879Z,1000.95
2018-12-10T03:43:32.856Z,1000.91
2018-12-10T03:44:32.836Z,1000.92
2018-12-10T03:45:32.816Z,1000.93
2018-12-10T03:46:32.794Z,1000.97
2018-12-10T03:47:32.770Z,1000.95
2018-12-10T03:48:32.747Z,1001.01
2018-12-10T03:49:32.730Z,1001.02
2018-12-10T03:50:32.700Z,1000.97
2018-12-10T03:51:32.684Z,1001.00
2018-12-10T03:52:32.662Z,1001.06
2018-12-10T03:53:32.636Z,1001.09
2018-12-10T03:54:32.614Z,1001.03
2018-12-10T03:55:32.594Z,1001.05
2018-12-10T03:56:32.570Z,1001.14
2018-12-10T03:57:32.548Z,1001.14
2018-12-10T03:58:32.529Z,1001.15
2018-12-10T03:59:32.508Z,1001.13
2018-12-10T04:00:32.482Z,1001.15
2018-12-10T04:01:32.458Z,1001.17
2018-12-10T04:02:32.440Z,1001.14
2018-12-10T04:03:32.416Z,1001.09
2018-12-10T04:04:32.393Z,1001.22
2018-12-10T04:05:32.374Z,1001.24
2018-12-10T04:06:32.354Z,1001.31
2018-12-10T04:07:32.328Z,1001.25
2018-12-10T04:08:32.304Z,1001.22
2018-12-10T04:09:32.296Z,1001.27
2018-12-10T04:10:32.264Z,1001.28
2018-12-10T04:11:32.246Z,1001.29
2018-12-10T04:12:32.219Z,1001.34
2018-12-10T04:13:32.196Z,1001.46
2018-12-10T04:14:32.180Z,1001.47
2018-12-10T04:15:32.156Z,1001.34
2018-12-10T04:16:32.133Z,1001.47
2018-12-10T04:17:32.112Z,1001.48
2018-12-10T04:18:32.086Z,1001.51
2018-12-10T04:19:32.064Z,1001.46
2018-12-10T04:20:32.043Z,1001.59
2018-12-10T04:21:32.020Z,1001.49
2018-12-10T04:22:31.998Z,1001.59
2018-12-10T04:23:31.979Z,1001.54
2018-12-10T04:24:31.952Z,1001.60
2018-12-10T04:25:31.932Z,1001.48
2018-12-10T04:26:31.908Z,1001.52
2018-12-10T04:27:31.886Z,1001.54
2018-12-10T04:28:31.867Z,1001.59
2018-12-10T04:29:31.843Z,1001.55
2018-12-10T04:30:31.824Z,1001.51
2018-12-10T04:31:31.802Z,1001.53
2018-12-10T04:32:31.778Z,1001.61
2018-12-10T04:33:31.762Z,1001.57
2018-12-10T04:34:31.742Z,1001.65
2018-12-10T04:35:31.710Z,1001.57
2018-12-10T04:36:31.696Z,1001.65
2018-12-10T04:37:31.666Z,1001.57
2018-12-10T04:38:31.648Z,1001.61
2018-12-10T04:39:34.328Z,1001.67
2018-12-10T04:40:31.602Z,1001.74
2018-12-10T04:41:31.580Z,1001.60
2018-12-10T04:42:31.556Z,1001.67
2018-12-10T04:43:31.533Z,1001.65
2018-12-10T04:44:31.512Z,1001.68
2018-12-10T04:45:31.490Z,1001.75
2018-12-10T04:46:31.470Z,1001.72
2018-12-10T04:47:31.445Z,1001.71
2018-12-10T04:48:31.427Z,1001.74
2018-12-10T04:49:31.402Z,1001.71
2018-12-10T04:50:31.384Z,1001.74
2018-12-10T04:51:31.359Z,1001.68
2018-12-10T04:52:31.348Z,1001.68
2018-12-10T04:53:31.315Z,1001.73
2018-12-10T04:54:31.293Z,1001.78
2018-12-10T04:55:31.270Z,1001.81
2018-12-10T04:56:31.261Z,1001.83
2018-12-10T04:57:31.231Z,1001.86
2018-12-10T04:58:31.202Z,1001.83
2018-12-10T04:59:31.179Z,1001.88
2018-12-10T05:00:31.160Z,1001.92
2018-12-10T05:01:31.136Z,1001.74
2018-12-10T05:02:31.119Z,1001.89
2018-12-10T05:03:31.089Z,1001.85
2018-12-10T05:04:31.075Z,1001.84
2018-12-10T05:05:31.049Z,1001.89
2018-12-10T05:06:31.026Z,1001.92
2018-12-10T05:07:31.007Z,1001.90
2018-12-10T05:08:30.982Z,1001.94
2018-12-10T05:09:30.963Z,1001.94
2018-12-10T05:10:30.934Z,1001.96
2018-12-10T05:11:30.926Z,1002.00
2018-12-10T05:12:30.899Z,1002.03
2018-12-10T05:13:30.877Z,1001.99
2018-12-10T05:14:30.853Z,1001.99
2018-12-10T05:15:30.828Z,1002.07
2018-12-10T05:16:30.808Z,1002.13
2018-12-10T05:17:30.786Z,1002.10
2018-12-10T05:18:30.762Z,1002.09
2018-12-10T05:19:30.738Z,1002.18
2018-12-10T05:20:30.720Z,1002.17
2018-12-10T05:21:30.694Z,1002.16
2018-12-10T05:22:30.672Z,1002.15
2018-12-10T05:23:30.656Z,1002.25
2018-12-10T05:24:30.626Z,1002.14
2018-12-10T05:25:30.604Z,1002.12
2018-12-10T05:26:30.584Z,1002.23
2018-12-10T05:27:30.567Z,1002.20
2018-12-10T05:28:30.544Z,1002.21
2018-12-10T05:29:30.527Z,1002.21
2018-12-10T05:30:30.492Z,1002.26
2018-12-10T05:31:30.472Z,1002.36
2018-12-10T05:32:30.453Z,1002.25
2018-12-10T05:33:30.436Z,1002.29
2018-12-10T05:34:30.407Z,1002.40
2018-12-10T05:35:30.386Z,1002.34
2018-12-10T05:36:30.368Z,1002.44
2018-12-10T05:37:30.347Z,1002.26
2018-12-10T05:38:30.314Z,1002.30
2018-12-10T05:39:30.300Z,1002.27
2018-12-10T05:40:30.274Z,1002.32
2018-12-10T05:41:30.264Z,1002.35
2018-12-10T05:42:30.232Z,1002.38
2018-12-10T05:43:30.210Z,1002.31
2018-12-10T05:44:30.184Z,1002.33
2018-12-10T05:45:30.166Z,1002.32
2018-12-10T05:46:30.146Z,1002.34
2018-12-10T05:47:30.120Z,1002.34
2018-12-10T05:48:30.106Z,1002.39
2018-12-10T05:49:30.076Z,1002.39
2018-12-10T05:50:30.056Z,1002.48
2018-12-10T05:51:30.034Z,1002.44
2018-12-10T05:52:30.021Z,1002.54
2018-12-10T05:53:29.987Z,1002.53
2018-12-10T05:54:29.966Z,1002.59
2018-12-10T05:55:29.942Z,1002.54
2018-12-10T05:56:29.920Z,1002.52
2018-12-10T05:57:29.901Z,1002.53
2018-12-10T05:58:29.876Z,1002.60
2018-12-10T05:59:29.856Z,1002.59
2018-12-10T06:00:29.833Z,1002.61
2018-12-10T06:01:29.813Z,1002.62
2018-12-10T06:02:29.790Z,1002.63
2018-12-10T06:03:29.770Z,1002.66
2018-12-10T06:04:29.756Z,1002.65
2018-12-10T06:05:29.719Z,1002.62
2018-12-10T06:06:29.697Z,1002.67
2018-12-10T06:07:29.677Z,1002.63
2018-12-10T06:08:29.658Z,1002.72
2018-12-10T06:09:29.631Z,1002.63
2018-12-10T06:10:29.608Z,1002.78
2018-12-10T06:11:29.590Z,1002.62
2018-12-10T06:12:29.564Z,1002.75
2018-12-10T06:13:29.551Z,1002.68
2018-12-10T06:14:29.521Z,1002.77
2018-12-10T06:15:29.499Z,1002.84
2018-12-10T06:16:29.480Z,1002.83
2018-12-10T06:17:29.458Z,1002.91
2018-12-10T06:18:29.429Z,1002.82
2018-12-10T06:19:29.416Z,1002.87
2018-12-10T06:20:29.393Z,1002.87
2018-12-10T06:21:29.365Z,1002.96
2018-12-10T06:22:29.345Z,1002.94
2018-12-10T06:23:29.323Z,1002.92
2018-12-10T06:24:29.301Z,1002.96
2018-12-10T06:25:29.278Z,1003.01
2018-12-10T06:26:29.259Z,1003.00
2018-12-10T06:27:29.287Z,1003.03
2018-12-10T06:28:29.210Z,1003.01
2018-12-10T06:29:29.193Z,1003.07
2018-12-10T06:30:29.169Z,1003.13
2018-12-10T06:31:29.149Z,1003.04
2018-12-10T06:32:29.124Z,1003.12
2018-12-10T06:33:29.101Z,1003.13
2018-12-10T06:34:29.075Z,1003.12
2018-12-10T06:35:29.059Z,1003.13
2018-12-10T06:36:29.033Z,1003.26
2018-12-10T06:37:37.412Z,1003.26
2018-12-10T06:38:28.992Z,1003.24
2018-12-10T06:39:28.969Z,1003.19
2018-12-10T06:40:29.005Z,1003.27
2018-12-10T06:41:28.927Z,1003.33
2018-12-10T06:42:28.899Z,1003.33
2018-12-10T06:43:28.885Z,1003.34
2018-12-10T06:44:28.866Z,1003.34
2018-12-10T06:45:28.837Z,1003.43
2018-12-10T06:46:28.808Z,1003.42
2018-12-10T06:47:28.790Z,1003.35
2018-12-10T06:48:28.771Z,1003.40
2018-12-10T06:49:28.745Z,1003.45
2018-12-10T06:50:28.725Z,1003.43
2018-12-10T06:51:28.702Z,1003.40
2018-12-10T06:52:28.679Z,1003.42
2018-12-10T06:53:28.657Z,1003.48
2018-12-10T06:54:28.639Z,1003.47
2018-12-10T06:55:28.616Z,1003.53
2018-12-10T06:56:28.595Z,1003.48
2018-12-10T06:57:28.573Z,1003.53
2018-12-10T06:58:28.551Z,1003.55
2018-12-10T06:59:28.524Z,1003.56
2018-12-10T07:00:28.502Z,1003.65
2018-12-10T07:01:28.482Z,1003.61
2018-12-10T07:02:28.461Z,1003.73
2018-12-10T07:03:28.442Z,1003.70
2018-12-10T07:04:28.415Z,1003.67
2018-12-10T07:05:28.388Z,1003.78
2018-12-10T07:06:28.380Z,1003.75
2018-12-10T07:07:28.352Z,1003.70
2018-12-10T07:08:28.328Z,1003.75
2018-12-10T07:09:28.307Z,1003.76
2018-12-10T07:10:28.287Z,1003.78
2018-12-10T07:11:28.262Z,1003.78
2018-12-10T07:12:28.238Z,1003.84
2018-12-10T07:13:28.218Z,1003.76
2018-12-10T07:14:28.189Z,1003.76
2018-12-10T07:15:28.182Z,1003.66
2018-12-10T07:16:28.153Z,1003.78
2018-12-10T07:17:28.131Z,1003.69
2018-12-10T07:18:28.107Z,1003.70
2018-12-10T07:19:28.086Z,1003.71
2018-12-10T07:20:28.062Z,1003.69
2018-12-10T07:21:28.040Z,1003.71
2018-12-10T07:22:28.018Z,1003.76
2018-12-10T07:23:27.996Z,1003.75
2018-12-10T07:24:27.971Z,1003.81
2018-12-10T07:25:27.950Z,1003.81
2018-12-10T07:26:27.932Z,1003.78
2018-12-10T07:27:27.906Z,1003.78
2018-12-10T07:28:27.886Z,1003.83
2018-12-10T07:29:27.864Z,1003.84
2018-12-10T07:30:27.838Z,1003.83
2018-12-10T07:31:27.822Z,1003.87
2018-12-10T07:32:27.791Z,1003.87
2018-12-10T07:33:27.772Z,1003.90
2018-12-10T07:34:27.751Z,1003.88
2018-12-10T07:35:27.731Z,1003.93
2018-12-10T07:36:27.714Z,1003.94
2018-12-10T07:37:27.682Z,1003.95
2018-12-10T07:38:27.666Z,1003.96
2018-12-10T07:39:27.641Z,1004.11
2018-12-10T07:40:27.614Z,1004.07
2018-12-10T07:41:27.595Z,1004.02
2018-12-10T07:42:27.572Z,1003.99
2018-12-10T07:43:27.555Z,1004.01
2018-12-10T07:44:27.530Z,1003.95
2018-12-10T07:45:27.510Z,1004.01
2018-12-10T07:46:27.483Z,1004.05
2018-12-10T07:47:27.463Z,1004.10
2018-12-10T07:48:27.440Z,1004.08
2018-12-10T07:49:27.417Z,1004.13
2018-12-10T07:50:27.400Z,1004.11
2018-12-10T07:51:27.374Z,1004.14
2018-12-10T07:52:27.356Z,1004.14
2018-12-10T07:53:27.331Z,1004.16
2018-12-10T07:54:27.312Z,1003.99
2018-12-10T07:55:27.285Z,1004.05
2018-12-10T07:56:29.065Z,1004.05
2018-12-10T07:57:27.241Z,1004.03
2018-12-10T07:58:27.219Z,1004.11
2018-12-10T07:59:27.195Z,1004.20
2018-12-10T08:00:27.175Z,1004.12
2018-12-10T08:01:27.155Z,1004.08
2018-12-10T08:02:27.136Z,1004.13
2018-12-10T08:03:27.105Z,1004.12
2018-12-10T08:04:27.091Z,1004.17
2018-12-10T08:05:27.066Z,1004.16
2018-12-10T08:06:27.042Z,1004.08
2018-12-10T08:07:27.019Z,1004.05
2018-12-10T08:08:26.997Z,1004.12
2018-12-10T08:09:26.974Z,1004.09
2018-12-10T08:10:26.952Z,1004.14
2018-12-10T08:11:26.931Z,1004.02
2018-12-10T08:12:26.913Z,1004.20
2018-12-10T08:13:26.891Z,1004.23
2018-12-10T08:14:26.867Z,1004.13
2018-12-10T08:15:26.842Z,1004.16
2018-12-10T08:16:26.819Z,1004.29
2018-12-10T08:17:26.805Z,1004.21
2018-12-10T08:18:26.784Z,1004.32
2018-12-10T08:19:26.754Z,1004.33
2018-12-10T08:20:26.730Z,1004.35
2018-12-10T08:21:26.707Z,1004.30
2018-12-10T08:22:26.689Z,1004.41
2018-12-10T08:23:26.692Z,1004.30
2018-12-10T08:24:26.647Z,1004.39
2018-12-10T08:25:26.626Z,1004.31
2018-12-10T08:26:26.602Z,1004.36
2018-12-10T08:27:26.587Z,1004.40
2018-12-10T08:28:26.553Z,1004.45
2018-12-10T08:29:26.531Z,1004.38
2018-12-10T08:30:26.515Z,1004.37
2018-12-10T08:31:26.491Z,1004.45
2018-12-10T08:32:26.464Z,1004.51
2018-12-10T08:33:26.447Z,1004.39
2018-12-10T08:34:26.421Z,1004.44
2018-12-10T08:35:26.402Z,1004.48
2018-12-10T08:36:26.375Z,1004.52
2018-12-10T08:37:26.355Z,1004.44
2018-12-10T08:38:26.331Z,1004.43
2018-12-10T08:39:26.317Z,1004.40
2018-12-10T08:40:26.286Z,1004.27
2018-12-10T08:41:26.268Z,1004.28
2018-12-10T08:42:26.300Z,1004.38
2018-12-10T08:43:26.228Z,1004.37
2018-12-10T08:44:26.205Z,1004.37
2018-12-10T08:45:26.178Z,1004.41
2018-12-10T08:46:26.153Z,1004.42
2018-12-10T08:47:26.137Z,1004.38
2018-12-10T08:48:26.118Z,1004.48
2018-12-10T08:49:26.088Z,1004.43
2018-12-10T08:50:26.064Z,1004.36
2018-12-10T08:51:26.046Z,1004.37
2018-12-10T08:52:26.035Z,1004.42
2018-12-10T08:53:26.002Z,1004.41
2018-12-10T08:54:25.980Z,1004.47
2018-12-10T08:55:25.954Z,1004.46
2018-12-10T08:56:25.934Z,1004.53
2018-12-10T08:57:25.908Z,1004.54
2018-12-10T08:58:25.893Z,1004.62
2018-12-10T08:59:25.868Z,1004.59
2018-12-10T09:00:25.847Z,1004.61
2018-12-10T09:01:25.826Z,1004.61
2018-12-10T09:02:25.804Z,1004.64
2018-12-10T09:03:25.779Z,1004.67
2018-12-10T09:04:25.760Z,1004.67
2018-12-10T09:05:25.742Z,1004.63
2018-12-10T09:06:25.714Z,1004.73
2018-12-10T09:07:25.694Z,1004.75
2018-12-10T09:08:25.672Z,1004.67
2018-12-10T09:09:25.650Z,1004.78
2018-12-10T09:10:25.628Z,1004.81
2018-12-10T09:11:25.603Z,1004.77
2018-12-10T09:12:25.586Z,1004.76
2018-12-10T09:13:25.562Z,1004.86
2018-12-10T09:14:25.538Z,1004.72
2018-12-10T09:15:25.515Z,1004.77
2018-12-10T09:16:25.499Z,1004.84
2018-12-10T09:17:25.474Z,1004.80
2018-12-10T09:18:25.450Z,1004.96
2018-12-10T09:19:25.435Z,1004.94
2018-12-10T09:20:25.459Z,1004.97
2018-12-10T09:21:25.390Z,1004.91
2018-12-10T09:22:25.360Z,1004.96
2018-12-10T09:23:25.342Z,1004.94
2018-12-10T09:24:25.322Z,1004.81
2018-12-10T09:25:26.318Z,1004.86
2018-12-10T09:26:25.276Z,1004.90
2018-12-10T09:27:25.257Z,1005.00
2018-12-10T09:28:25.233Z,1004.88
2018-12-10T09:29:25.235Z,1004.94
2018-12-10T09:30:25.200Z,1004.88
2018-12-10T09:31:25.170Z,1004.85
2018-12-10T09:32:25.143Z,1004.94
2018-12-10T09:33:25.121Z,1004.94
2018-12-10T09:34:25.105Z,1004.97
2018-12-10T09:35:25.081Z,1004.98
2018-12-10T09:36:25.059Z,1004.95
2018-12-10T09:37:25.035Z,1004.98
2018-12-10T09:38:25.019Z,1004.98
2018-12-10T09:39:24.995Z,1005.08
2018-12-10T09:40:24.987Z,1004.98
2018-12-10T09:41:24.945Z,1004.99
2018-12-10T09:42:24.921Z,1004.99
2018-12-10T09:43:24.905Z,1005.00
2018-12-10T09:44:24.886Z,1004.97
2018-12-10T09:45:24.861Z,1005.02
2018-12-10T09:46:27.664Z,1005.00
2018-12-10T09:47:24.813Z,1004.98
2018-12-10T09:48:24.795Z,1004.99
2018-12-10T09:49:24.769Z,1004.97
2018-12-10T09:50:24.749Z,1005.06
2018-12-10T09:51:24.729Z,1005.05
2018-12-10T09:52:24.715Z,1005.10
2018-12-10T09:53:24.694Z,1005.09
2018-12-10T09:54:24.665Z,1004.94
2018-12-10T09:55:24.640Z,1004.94
2018-12-10T09:56:24.616Z,1004.97
2018-12-10T09:57:24.829Z,1005.09
2018-12-10T09:58:24.574Z,1005.14
2018-12-10T09:59:24.561Z,1005.09
2018-12-10T10:00:24.533Z,1005.11
2018-12-10T10:01:26.129Z,1005.16
2018-12-10T10:02:24.493Z,1005.15
2018-12-10T10:03:24.469Z,1005.15
2018-12-10T10:04:24.445Z,1005.11
2018-12-10T10:05:24.422Z,1005.23
2018-12-10T10:06:24.403Z,1005.18
2018-12-10T10:07:28.399Z,1005.35
2018-12-10T10:08:24.353Z,1004.99
2018-12-10T10:09:24.337Z,1005.09
2018-12-10T10:10:24.317Z,1005.21
2018-12-10T10:11:24.293Z,1005.13
2018-12-10T10:12:24.270Z,1005.27
2018-12-10T10:13:24.253Z,1005.32
2018-12-10T10:14:24.228Z,1005.27
2018-12-10T10:15:24.206Z,1005.33
2018-12-10T10:16:24.187Z,1005.25
2018-12-10T10:17:24.166Z,1005.37
2018-12-10T10:18:24.143Z,1005.46
2018-12-10T10:19:24.119Z,1005.23
2018-12-10T10:20:24.097Z,1005.30
2018-12-10T10:21:24.077Z,1005.34
2018-12-10T10:22:24.051Z,1005.46
2018-12-10T10:23:24.029Z,1005.51
2018-12-10T10:24:24.007Z,1005.30
2018-12-10T10:25:23.988Z,1005.37
2018-12-10T10:26:23.964Z,1005.37
2018-12-10T10:27:23.947Z,1005.33
2018-12-10T10:28:23.920Z,1005.33
2018-12-10T10:29:23.900Z,1005.30
2018-12-10T10:30:23.881Z,1005.35
2018-12-10T10:31:23.859Z,1005.24
2018-12-10T10:32:23.831Z,1005.35
2018-12-10T10:33:32.121Z,1005.39
2018-12-10T10:34:23.801Z,1005.28
2018-12-10T10:35:23.772Z,1005.35
2018-12-10T10:36:23.748Z,1005.34
2018-12-10T10:37:23.736Z,1005.30
2018-12-10T10:38:23.710Z,1005.35
2018-12-10T10:39:23.682Z,1005.28
2018-12-10T10:40:23.663Z,1005.21
2018-12-10T10:41:31.125Z,1005.38
2018-12-10T10:42:23.626Z,1005.30
2018-12-10T10:43:23.599Z,1005.33
2018-12-10T10:44:23.577Z,1005.34
2018-12-10T10:45:23.559Z,1005.24
2018-12-10T10:46:24.884Z,1005.27
2018-12-10T10:47:23.601Z,1005.28
2018-12-10T10:48:23.489Z,1005.15
2018-12-10T10:49:23.473Z,1005.24
2018-12-10T10:50:23.450Z,1005.20
2018-12-10T10:51:23.427Z,1005.19
2018-12-10T10:52:23.405Z,1005.14
2018-12-10T10:53:23.383Z,1005.14
2018-12-10T10:54:23.361Z,1005.18
2018-12-10T10:55:23.344Z,1005.18
2018-12-10T10:56:23.323Z,1005.11
2018-12-10T10:57:23.301Z,1005.06
2018-12-10T10:58:23.283Z,1005.13
2018-12-10T10:59:23.258Z,1005.08
2018-12-10T11:00:23.236Z,1005.14
2018-12-10T11:01:23.214Z,1005.17
2018-12-10T11:02:23.192Z,1005.27
2018-12-10T11:03:23.168Z,1005.19
2018-12-10T11:04:23.150Z,1005.37
2018-12-10T11:05:23.153Z,1005.18
2018-12-10T11:06:23.106Z,1005.23
2018-12-10T11:07:23.089Z,1005.21
2018-12-10T11:08:23.062Z,1005.04
2018-12-10T11:09:23.042Z,1005.29
2018-12-10T11:10:23.019Z,1005.21
2018-12-10T11:11:22.999Z,1005.15
2018-12-10T11:12:22.975Z,1005.15
2018-12-10T11:13:22.955Z,1005.31
2018-12-10T11:14:22.936Z,1005.14
2018-12-10T11:15:22.914Z,1005.23
2018-12-10T11:16:22.890Z,1005.15
2018-12-10T11:17:22.866Z,1005.20
2018-12-10T11:18:22.849Z,1005.11
2018-12-10T11:19:22.827Z,1005.19
2018-12-10T11:20:22.803Z,1005.09
2018-12-10T11:21:22.792Z,1005.15
2018-12-10T11:22:22.763Z,1005.14
2018-12-10T11:23:22.743Z,1005.17
2018-12-10T11:24:22.714Z,1005.22
2018-12-10T11:25:22.695Z,1005.21
2018-12-10T11:26:22.672Z,1005.18
2018-12-10T11:27:22.652Z,1005.19
2018-12-10T11:28:22.627Z,1005.22
2018-12-10T11:29:22.617Z,1005.18
2018-12-10T11:30:22.582Z,1005.18
2018-12-10T11:31:22.564Z,1005.17
2018-12-10T11:32:22.545Z,1005.23
2018-12-10T11:33:22.520Z,1005.23
2018-12-10T11:34:22.498Z,1005.24
2018-12-10T11:35:22.482Z,1005.19
2018-12-10T11:36:22.508Z,1005.18
2018-12-10T11:37:22.444Z,1005.15
2018-12-10T11:38:22.417Z,1005.20
2018-12-10T11:39:22.396Z,1005.22
2018-12-10T11:40:22.390Z,1005.16
2018-12-10T11:41:22.350Z,1005.25
2018-12-10T11:42:22.330Z,1005.15
2018-12-10T11:43:22.308Z,1005.21
2018-12-10T11:44:22.293Z,1005.20
2018-12-10T11:45:22.268Z,1005.22
2018-12-10T11:46:22.246Z,1005.20
2018-12-10T11:47:22.220Z,1005.32
2018-12-10T11:48:22.202Z,1005.19
2018-12-10T11:49:22.180Z,1005.18
2018-12-10T11:50:22.320Z,1005.19
2018-12-10T11:51:22.138Z,1005.32
2018-12-10T11:52:22.118Z,1005.26
2018-12-10T11:53:22.104Z,1005.28
2018-12-10T11:54:22.072Z,1005.30
2018-12-10T11:55:22.057Z,1005.32
2018-12-10T11:56:22.031Z,1005.37
2018-12-10T11:57:22.012Z,1005.30
2018-12-10T11:58:21.985Z,1005.31
2018-12-10T11:59:21.966Z,1005.31
2018-12-10T12:00:21.942Z,1005.40
2018-12-10T12:01:21.921Z,1005.32
2018-12-10T12:02:29.582Z,1005.28
2018-12-10T12:03:21.877Z,1005.34
2018-12-10T12:04:21.860Z,1005.32
2018-12-10T12:05:21.837Z,1005.29
2018-12-10T12:06:21.817Z,1005.40
2018-12-10T12:07:21.799Z,1005.27
2018-12-10T12:08:21.775Z,1005.27
2018-12-10T12:09:21.752Z,1005.31